sensor_id;sensor_type;location;lat;lon;timestamp;P1;durP1;ratioP1;P2;durP2;ratioP2
20114;SDS011;10218;42.874;25.320;2023-03-02T00:07:03;30.70;;;14.20;;
20114;SDS011;10218;42.874;25.320;2023-03-02T00:09:34;35.87;;;16.13;;
20114;SDS011;10218;42.874;25.320;2023-03-02T00:12:02;34.23;;;15.40;;
20114;SDS011;10218;42.874;25.320;2023-03-02T00:14:30;32.33;;;15.17;;
20114;SDS011;10218;42.874;25.320;2023-03-02T00:16:57;32.13;;;16.10;;
20114;SDS011;10218;42.874;25.320;2023-03-02T00:19:24;38.57;;;17.67;;
20114;SDS011;10218;42.874;25.320;2023-03-02T00:21:51;40.03;;;18.33;;
20114;SDS011;10218;42.874;25.320;2023-03-02T00:24:18;36.13;;;16.90;;
20114;SDS011;10218;42.874;25.320;2023-03-02T00:26:45;41.50;;;19.33;;
20114;SDS011;10218;42.874;25.320;2023-03-02T00:29:12;51.50;;;22.30;;
20114;SDS011;10218;42.874;25.320;2023-03-02T00:31:40;41.60;;;20.97;;
20114;SDS011;10218;42.874;25.320;2023-03-02T00:34:07;51.30;;;22.60;;
20114;SDS011;10218;42.874;25.320;2023-03-02T00:36:34;52.10;;;22.70;;
20114;SDS011;10218;42.874;25.320;2023-03-02T00:39:01;46.07;;;22.07;;
20114;SDS011;10218;42.874;25.320;2023-03-02T00:41:30;43.83;;;21.73;;
20114;SDS011;10218;42.874;25.320;2023-03-02T00:43:57;43.10;;;20.90;;
20114;SDS011;10218;42.874;25.320;2023-03-02T00:46:24;45.37;;;20.57;;
20114;SDS011;10218;42.874;25.320;2023-03-02T00:48:51;47.70;;;20.83;;
20114;SDS011;10218;42.874;25.320;2023-03-02T00:51:18;44.13;;;20.30;;
20114;SDS011;10218;42.874;25.320;2023-03-02T00:53:46;49.77;;;21.13;;
20114;SDS011;10218;42.874;25.320;2023-03-02T00:56:13;46.97;;;21.73;;
20114;SDS011;10218;42.874;25.320;2023-03-02T00:58:41;48.07;;;21.30;;
20114;SDS011;10218;42.874;25.320;2023-03-02T01:01:10;46.63;;;20.47;;
20114;SDS011;10218;42.874;25.320;2023-03-02T01:03:38;40.00;;;19.10;;
20114;SDS011;10218;42.874;25.320;2023-03-02T01:06:12;47.27;;;19.70;;
20114;SDS011;10218;42.874;25.320;2023-03-02T01:08:42;39.63;;;18.47;;
20114;SDS011;10218;42.874;25.320;2023-03-02T01:11:16;44.17;;;18.47;;
20114;SDS011;10218;42.874;25.320;2023-03-02T01:13:45;42.57;;;18.80;;
20114;SDS011;10218;42.874;25.320;2023-03-02T01:16:12;39.83;;;18.10;;
20114;SDS011;10218;42.874;25.320;2023-03-02T01:18:40;42.20;;;20.00;;
20114;SDS011;10218;42.874;25.320;2023-03-02T01:21:09;41.40;;;18.97;;
20114;SDS011;10218;42.874;25.320;2023-03-02T01:23:38;40.50;;;17.13;;
20114;SDS011;10218;42.874;25.320;2023-03-02T01:26:05;36.57;;;16.90;;
20114;SDS011;10218;42.874;25.320;2023-03-02T01:28:33;35.67;;;17.37;;
20114;SDS011;10218;42.874;25.320;2023-03-02T01:31:00;34.80;;;15.50;;
20114;SDS011;10218;42.874;25.320;2023-03-02T01:33:29;32.70;;;15.70;;
20114;SDS011;10218;42.874;25.320;2023-03-02T01:35:57;30.27;;;14.77;;
20114;SDS011;10218;42.874;25.320;2023-03-02T01:38:24;34.23;;;15.47;;
20114;SDS011;10218;42.874;25.320;2023-03-02T01:40:51;33.63;;;16.03;;
20114;SDS011;10218;42.874;25.320;2023-03-02T01:43:18;35.10;;;16.63;;
20114;SDS011;10218;42.874;25.320;2023-03-02T01:48:27;38.57;;;16.47;;
20114;SDS011;10218;42.874;25.320;2023-03-02T01:50:59;39.03;;;17.80;;
20114;SDS011;10218;42.874;25.320;2023-03-02T01:53:27;34.53;;;15.90;;
20114;SDS011;10218;42.874;25.320;2023-03-02T01:55:57;37.73;;;16.53;;
20114;SDS011;10218;42.874;25.320;2023-03-02T01:58:26;37.23;;;17.43;;
20114;SDS011;10218;42.874;25.320;2023-03-02T02:00:57;37.50;;;17.10;;
20114;SDS011;10218;42.874;25.320;2023-03-02T02:03:25;38.27;;;17.30;;
20114;SDS011;10218;42.874;25.320;2023-03-02T02:05:59;43.33;;;17.33;;
20114;SDS011;10218;42.874;25.320;2023-03-02T02:08:32;39.00;;;16.80;;
20114;SDS011;10218;42.874;25.320;2023-03-02T02:10:59;35.50;;;16.30;;
20114;SDS011;10218;42.874;25.320;2023-03-02T02:13:26;44.67;;;18.20;;
20114;SDS011;10218;42.874;25.320;2023-03-02T02:15:53;38.80;;;16.83;;
20114;SDS011;10218;42.874;25.320;2023-03-02T02:18:20;34.40;;;15.43;;
20114;SDS011;10218;42.874;25.320;2023-03-02T02:20:48;34.80;;;15.60;;
20114;SDS011;10218;42.874;25.320;2023-03-02T02:25:59;42.23;;;17.30;;
20114;SDS011;10218;42.874;25.320;2023-03-02T02:28:29;39.13;;;16.20;;
20114;SDS011;10218;42.874;25.320;2023-03-02T02:31:05;39.37;;;15.90;;
20114;SDS011;10218;42.874;25.320;2023-03-02T02:33:41;43.83;;;17.87;;
20114;SDS011;10218;42.874;25.320;2023-03-02T02:36:13;41.87;;;16.70;;
20114;SDS011;10218;42.874;25.320;2023-03-02T02:38:47;39.10;;;16.10;;
20114;SDS011;10218;42.874;25.320;2023-03-02T02:41:18;41.00;;;16.70;;
20114;SDS011;10218;42.874;25.320;2023-03-02T02:43:52;37.47;;;16.87;;
20114;SDS011;10218;42.874;25.320;2023-03-02T02:46:20;34.27;;;15.50;;
20114;SDS011;10218;42.874;25.320;2023-03-02T02:48:48;34.73;;;15.40;;
20114;SDS011;10218;42.874;25.320;2023-03-02T02:51:21;32.93;;;15.33;;
20114;SDS011;10218;42.874;25.320;2023-03-02T02:53:53;36.07;;;16.20;;
20114;SDS011;10218;42.874;25.320;2023-03-02T02:56:28;37.17;;;17.27;;
20114;SDS011;10218;42.874;25.320;2023-03-02T02:59:00;39.07;;;16.60;;
20114;SDS011;10218;42.874;25.320;2023-03-02T03:01:32;35.00;;;15.73;;
20114;SDS011;10218;42.874;25.320;2023-03-02T03:04:01;37.73;;;15.90;;
20114;SDS011;10218;42.874;25.320;2023-03-02T03:06:32;36.20;;;15.90;;
20114;SDS011;10218;42.874;25.320;2023-03-02T03:09:09;38.73;;;16.93;;
20114;SDS011;10218;42.874;25.320;2023-03-02T03:11:37;37.07;;;17.30;;
20114;SDS011;10218;42.874;25.320;2023-03-02T03:16:54;41.80;;;17.33;;
20114;SDS011;10218;42.874;25.320;2023-03-02T03:19:26;38.97;;;17.17;;
20114;SDS011;10218;42.874;25.320;2023-03-02T03:21:57;39.07;;;16.20;;
20114;SDS011;10218;42.874;25.320;2023-03-02T03:24:28;31.07;;;14.43;;
20114;SDS011;10218;42.874;25.320;2023-03-02T03:26:57;39.90;;;17.43;;
20114;SDS011;10218;42.874;25.320;2023-03-02T03:29:25;43.23;;;18.03;;
20114;SDS011;10218;42.874;25.320;2023-03-02T03:31:55;37.50;;;14.30;;
20114;SDS011;10218;42.874;25.320;2023-03-02T03:34:24;41.23;;;14.33;;
20114;SDS011;10218;42.874;25.320;2023-03-02T03:36:52;44.90;;;15.70;;
20114;SDS011;10218;42.874;25.320;2023-03-02T03:39:19;48.70;;;16.83;;
20114;SDS011;10218;42.874;25.320;2023-03-02T03:41:47;48.67;;;17.13;;
20114;SDS011;10218;42.874;25.320;2023-03-02T03:44:14;41.57;;;17.37;;
20114;SDS011;10218;42.874;25.320;2023-03-02T03:46:42;41.13;;;18.80;;
20114;SDS011;10218;42.874;25.320;2023-03-02T03:49:09;37.60;;;17.53;;
20114;SDS011;10218;42.874;25.320;2023-03-02T03:51:37;35.23;;;17.47;;
20114;SDS011;10218;42.874;25.320;2023-03-02T03:54:05;41.77;;;16.37;;
20114;SDS011;10218;42.874;25.320;2023-03-02T03:56:36;32.40;;;16.03;;
20114;SDS011;10218;42.874;25.320;2023-03-02T03:59:06;27.73;;;13.87;;
20114;SDS011;10218;42.874;25.320;2023-03-02T04:04:06;26.63;;;13.90;;
20114;SDS011;10218;42.874;25.320;2023-03-02T04:06:38;27.27;;;14.23;;
20114;SDS011;10218;42.874;25.320;2023-03-02T04:09:06;27.87;;;14.80;;
20114;SDS011;10218;42.874;25.320;2023-03-02T04:11:34;25.07;;;13.33;;
20114;SDS011;10218;42.874;25.320;2023-03-02T04:14:05;27.17;;;13.37;;
20114;SDS011;10218;42.874;25.320;2023-03-02T04:16:33;27.43;;;12.57;;
20114;SDS011;10218;42.874;25.320;2023-03-02T04:19:02;23.87;;;12.67;;
20114;SDS011;10218;42.874;25.320;2023-03-02T04:21:36;22.53;;;12.17;;
20114;SDS011;10218;42.874;25.320;2023-03-02T04:24:11;22.93;;;11.67;;
20114;SDS011;10218;42.874;25.320;2023-03-02T04:26:40;22.87;;;11.83;;
20114;SDS011;10218;42.874;25.320;2023-03-02T04:29:09;19.50;;;10.57;;
20114;SDS011;10218;42.874;25.320;2023-03-02T04:31:37;20.03;;;10.70;;
20114;SDS011;10218;42.874;25.320;2023-03-02T04:34:05;20.37;;;11.30;;
20114;SDS011;10218;42.874;25.320;2023-03-02T04:36:34;19.17;;;10.87;;
20114;SDS011;10218;42.874;25.320;2023-03-02T04:39:03;19.73;;;10.63;;
20114;SDS011;10218;42.874;25.320;2023-03-02T04:41:32;21.07;;;11.10;;
20114;SDS011;10218;42.874;25.320;2023-03-02T04:43:59;23.13;;;11.07;;
20114;SDS011;10218;42.874;25.320;2023-03-02T04:46:26;20.30;;;10.90;;
20114;SDS011;10218;42.874;25.320;2023-03-02T04:48:54;19.60;;;10.40;;
20114;SDS011;10218;42.874;25.320;2023-03-02T04:51:23;20.50;;;10.27;;
20114;SDS011;10218;42.874;25.320;2023-03-02T04:53:53;22.57;;;10.80;;
20114;SDS011;10218;42.874;25.320;2023-03-02T04:56:22;18.77;;;10.77;;
20114;SDS011;10218;42.874;25.320;2023-03-02T04:58:49;20.27;;;11.50;;
20114;SDS011;10218;42.874;25.320;2023-03-02T05:01:17;24.33;;;12.20;;
20114;SDS011;10218;42.874;25.320;2023-03-02T05:03:46;24.20;;;13.43;;
20114;SDS011;10218;42.874;25.320;2023-03-02T05:06:14;29.37;;;15.47;;
20114;SDS011;10218;42.874;25.320;2023-03-02T05:08:42;32.37;;;16.00;;
20114;SDS011;10218;42.874;25.320;2023-03-02T05:11:11;32.50;;;15.90;;
20114;SDS011;10218;42.874;25.320;2023-03-02T05:13:48;35.83;;;18.17;;
20114;SDS011;10218;42.874;25.320;2023-03-02T05:16:16;30.20;;;15.67;;
20114;SDS011;10218;42.874;25.320;2023-03-02T05:18:44;31.93;;;16.57;;
20114;SDS011;10218;42.874;25.320;2023-03-02T05:21:11;29.17;;;14.53;;
20114;SDS011;10218;42.874;25.320;2023-03-02T05:23:40;26.00;;;14.30;;
20114;SDS011;10218;42.874;25.320;2023-03-02T05:26:08;28.20;;;14.23;;
20114;SDS011;10218;42.874;25.320;2023-03-02T05:28:36;29.17;;;13.83;;
20114;SDS011;10218;42.874;25.320;2023-03-02T05:31:04;27.23;;;13.97;;
20114;SDS011;10218;42.874;25.320;2023-03-02T05:33:31;28.03;;;13.40;;
20114;SDS011;10218;42.874;25.320;2023-03-02T05:35:58;30.83;;;15.17;;
20114;SDS011;10218;42.874;25.320;2023-03-02T05:38:26;30.23;;;14.80;;
20114;SDS011;10218;42.874;25.320;2023-03-02T05:40:53;27.83;;;14.63;;
20114;SDS011;10218;42.874;25.320;2023-03-02T05:43:20;29.13;;;15.43;;
20114;SDS011;10218;42.874;25.320;2023-03-02T05:45:49;33.03;;;15.70;;
20114;SDS011;10218;42.874;25.320;2023-03-02T05:48:16;32.83;;;15.43;;
20114;SDS011;10218;42.874;25.320;2023-03-02T05:50:43;29.27;;;15.67;;
20114;SDS011;10218;42.874;25.320;2023-03-02T05:53:10;34.13;;;16.13;;
20114;SDS011;10218;42.874;25.320;2023-03-02T05:55:37;31.43;;;17.27;;
20114;SDS011;10218;42.874;25.320;2023-03-02T05:58:10;34.17;;;18.93;;
20114;SDS011;10218;42.874;25.320;2023-03-02T06:00:40;41.33;;;20.60;;
20114;SDS011;10218;42.874;25.320;2023-03-02T06:03:08;37.67;;;19.07;;
20114;SDS011;10218;42.874;25.320;2023-03-02T06:05:35;33.20;;;17.73;;
20114;SDS011;10218;42.874;25.320;2023-03-02T06:08:02;32.87;;;18.13;;
20114;SDS011;10218;42.874;25.320;2023-03-02T06:10:30;32.33;;;18.00;;
20114;SDS011;10218;42.874;25.320;2023-03-02T06:12:57;37.40;;;18.03;;
20114;SDS011;10218;42.874;25.320;2023-03-02T06:15:24;31.93;;;16.43;;
20114;SDS011;10218;42.874;25.320;2023-03-02T06:17:55;31.80;;;16.10;;
20114;SDS011;10218;42.874;25.320;2023-03-02T06:20:23;30.10;;;15.90;;
20114;SDS011;10218;42.874;25.320;2023-03-02T06:22:50;32.10;;;16.73;;
20114;SDS011;10218;42.874;25.320;2023-03-02T06:25:20;35.23;;;17.27;;
20114;SDS011;10218;42.874;25.320;2023-03-02T06:27:49;35.47;;;17.50;;
20114;SDS011;10218;42.874;25.320;2023-03-02T06:30:22;33.67;;;17.13;;
20114;SDS011;10218;42.874;25.320;2023-03-02T06:32:51;37.93;;;18.17;;
20114;SDS011;10218;42.874;25.320;2023-03-02T06:35:19;33.20;;;16.33;;
20114;SDS011;10218;42.874;25.320;2023-03-02T06:37:46;32.87;;;16.17;;
20114;SDS011;10218;42.874;25.320;2023-03-02T06:40:13;34.53;;;16.57;;
20114;SDS011;10218;42.874;25.320;2023-03-02T06:42:41;35.53;;;17.10;;
20114;SDS011;10218;42.874;25.320;2023-03-02T06:45:09;39.30;;;17.70;;
20114;SDS011;10218;42.874;25.320;2023-03-02T06:47:36;50.33;;;17.37;;
20114;SDS011;10218;42.874;25.320;2023-03-02T06:50:04;35.87;;;16.17;;
20114;SDS011;10218;42.874;25.320;2023-03-02T06:52:32;40.90;;;17.37;;
20114;SDS011;10218;42.874;25.320;2023-03-02T06:55:00;40.73;;;18.50;;
20114;SDS011;10218;42.874;25.320;2023-03-02T06:57:28;41.87;;;19.47;;
20114;SDS011;10218;42.874;25.320;2023-03-02T07:00:03;42.47;;;19.33;;
20114;SDS011;10218;42.874;25.320;2023-03-02T07:02:37;43.27;;;20.40;;
20114;SDS011;10218;42.874;25.320;2023-03-02T07:05:04;42.03;;;20.20;;
20114;SDS011;10218;42.874;25.320;2023-03-02T07:07:32;39.07;;;19.60;;
20114;SDS011;10218;42.874;25.320;2023-03-02T07:09:59;42.80;;;20.00;;
20114;SDS011;10218;42.874;25.320;2023-03-02T07:12:26;41.63;;;20.80;;
20114;SDS011;10218;42.874;25.320;2023-03-02T07:14:53;40.07;;;19.63;;
20114;SDS011;10218;42.874;25.320;2023-03-02T07:17:21;38.13;;;19.67;;
20114;SDS011;10218;42.874;25.320;2023-03-02T07:19:48;36.00;;;18.37;;
20114;SDS011;10218;42.874;25.320;2023-03-02T07:22:21;36.87;;;18.87;;
20114;SDS011;10218;42.874;25.320;2023-03-02T07:24:48;40.63;;;20.00;;
20114;SDS011;10218;42.874;25.320;2023-03-02T07:27:15;40.70;;;20.27;;
20114;SDS011;10218;42.874;25.320;2023-03-02T07:29:42;37.00;;;19.57;;
20114;SDS011;10218;42.874;25.320;2023-03-02T07:32:09;39.67;;;20.40;;
20114;SDS011;10218;42.874;25.320;2023-03-02T07:34:38;42.83;;;20.67;;
20114;SDS011;10218;42.874;25.320;2023-03-02T07:37:05;41.80;;;21.43;;
20114;SDS011;10218;42.874;25.320;2023-03-02T07:39:32;40.83;;;21.17;;
20114;SDS011;10218;42.874;25.320;2023-03-02T07:41:59;41.93;;;21.57;;
20114;SDS011;10218;42.874;25.320;2023-03-02T07:44:29;41.10;;;21.40;;
20114;SDS011;10218;42.874;25.320;2023-03-02T07:46:56;41.10;;;22.13;;
20114;SDS011;10218;42.874;25.320;2023-03-02T07:49:24;39.83;;;21.03;;
20114;SDS011;10218;42.874;25.320;2023-03-02T07:51:51;39.67;;;21.90;;
20114;SDS011;10218;42.874;25.320;2023-03-02T07:54:18;42.50;;;21.27;;
20114;SDS011;10218;42.874;25.320;2023-03-02T07:56:45;40.60;;;21.53;;
20114;SDS011;10218;42.874;25.320;2023-03-02T07:59:12;40.97;;;22.50;;
20114;SDS011;10218;42.874;25.320;2023-03-02T08:01:40;36.30;;;21.47;;
20114;SDS011;10218;42.874;25.320;2023-03-02T08:04:07;33.97;;;19.23;;
20114;SDS011;10218;42.874;25.320;2023-03-02T08:06:34;30.47;;;17.53;;
20114;SDS011;10218;42.874;25.320;2023-03-02T08:09:02;34.33;;;19.27;;
20114;SDS011;10218;42.874;25.320;2023-03-02T08:11:30;35.47;;;18.47;;
20114;SDS011;10218;42.874;25.320;2023-03-02T08:14:00;28.63;;;16.60;;
20114;SDS011;10218;42.874;25.320;2023-03-02T08:16:28;30.80;;;18.23;;
20114;SDS011;10218;42.874;25.320;2023-03-02T08:18:58;30.40;;;18.80;;
20114;SDS011;10218;42.874;25.320;2023-03-02T08:21:27;34.17;;;17.50;;
20114;SDS011;10218;42.874;25.320;2023-03-02T08:23:56;31.23;;;17.57;;
20114;SDS011;10218;42.874;25.320;2023-03-02T08:26:23;29.27;;;16.60;;
20114;SDS011;10218;42.874;25.320;2023-03-02T08:28:50;27.67;;;14.90;;
20114;SDS011;10218;42.874;25.320;2023-03-02T08:31:17;24.47;;;15.20;;
20114;SDS011;10218;42.874;25.320;2023-03-02T08:33:45;23.37;;;15.07;;
20114;SDS011;10218;42.874;25.320;2023-03-02T08:36:13;24.80;;;14.63;;
20114;SDS011;10218;42.874;25.320;2023-03-02T08:38:42;27.17;;;16.90;;
20114;SDS011;10218;42.874;25.320;2023-03-02T08:41:12;23.80;;;15.50;;
20114;SDS011;10218;42.874;25.320;2023-03-02T08:43:41;22.43;;;13.57;;
20114;SDS011;10218;42.874;25.320;2023-03-02T08:46:09;26.63;;;14.70;;
20114;SDS011;10218;42.874;25.320;2023-03-02T08:48:37;26.00;;;15.93;;
20114;SDS011;10218;42.874;25.320;2023-03-02T08:51:11;23.80;;;14.67;;
20114;SDS011;10218;42.874;25.320;2023-03-02T08:53:41;17.23;;;10.70;;
20114;SDS011;10218;42.874;25.320;2023-03-02T08:56:26;20.77;;;12.33;;
20114;SDS011;10218;42.874;25.320;2023-03-02T08:58:59;21.03;;;13.27;;
20114;SDS011;10218;42.874;25.320;2023-03-02T09:01:29;21.83;;;13.47;;
20114;SDS011;10218;42.874;25.320;2023-03-02T09:04:01;24.23;;;15.00;;
20114;SDS011;10218;42.874;25.320;2023-03-02T09:06:30;21.47;;;13.57;;
20114;SDS011;10218;42.874;25.320;2023-03-02T09:08:58;15.80;;;9.70;;
20114;SDS011;10218;42.874;25.320;2023-03-02T09:11:26;12.40;;;8.27;;
20114;SDS011;10218;42.874;25.320;2023-03-02T09:13:53;12.53;;;7.43;;
20114;SDS011;10218;42.874;25.320;2023-03-02T09:16:21;15.43;;;9.27;;
20114;SDS011;10218;42.874;25.320;2023-03-02T09:18:52;13.00;;;8.30;;
20114;SDS011;10218;42.874;25.320;2023-03-02T09:21:20;13.30;;;8.13;;
20114;SDS011;10218;42.874;25.320;2023-03-02T09:23:47;15.07;;;9.37;;
20114;SDS011;10218;42.874;25.320;2023-03-02T09:26:14;17.27;;;10.60;;
20114;SDS011;10218;42.874;25.320;2023-03-02T09:28:41;16.63;;;10.47;;
20114;SDS011;10218;42.874;25.320;2023-03-02T09:31:10;23.50;;;14.30;;
20114;SDS011;10218;42.874;25.320;2023-03-02T09:33:37;27.37;;;16.00;;
20114;SDS011;10218;42.874;25.320;2023-03-02T09:36:05;37.20;;;16.70;;
20114;SDS011;10218;42.874;25.320;2023-03-02T09:38:33;34.40;;;16.80;;
20114;SDS011;10218;42.874;25.320;2023-03-02T09:43:55;24.07;;;14.13;;
20114;SDS011;10218;42.874;25.320;2023-03-02T09:46:55;18.80;;;11.70;;
20114;SDS011;10218;42.874;25.320;2023-03-02T09:49:36;16.10;;;10.60;;
20114;SDS011;10218;42.874;25.320;2023-03-02T09:55:17;17.27;;;11.47;;
20114;SDS011;10218;42.874;25.320;2023-03-02T09:57:48;15.23;;;10.07;;
20114;SDS011;10218;42.874;25.320;2023-03-02T10:00:23;16.27;;;11.23;;
20114;SDS011;10218;42.874;25.320;2023-03-02T10:03:02;22.80;;;14.47;;
20114;SDS011;10218;42.874;25.320;2023-03-02T10:05:52;24.20;;;15.20;;
20114;SDS011;10218;42.874;25.320;2023-03-02T10:08:21;32.70;;;19.17;;
20114;SDS011;10218;42.874;25.320;2023-03-02T10:13:29;40.37;;;21.27;;
20114;SDS011;10218;42.874;25.320;2023-03-02T10:21:57;33.37;;;19.77;;
20114;SDS011;10218;42.874;25.320;2023-03-02T10:24:49;35.87;;;21.03;;
20114;SDS011;10218;42.874;25.320;2023-03-02T10:32:34;33.00;;;18.57;;
20114;SDS011;10218;42.874;25.320;2023-03-02T10:35:11;34.93;;;19.97;;
20114;SDS011;10218;42.874;25.320;2023-03-02T10:37:42;36.03;;;19.93;;
20114;SDS011;10218;42.874;25.320;2023-03-02T10:40:12;31.80;;;18.33;;
20114;SDS011;10218;42.874;25.320;2023-03-02T10:43:06;34.33;;;20.13;;
20114;SDS011;10218;42.874;25.320;2023-03-02T10:45:42;32.43;;;20.27;;
20114;SDS011;10218;42.874;25.320;2023-03-02T10:48:11;28.00;;;16.87;;
20114;SDS011;10218;42.874;25.320;2023-03-02T10:50:40;25.97;;;16.67;;
20114;SDS011;10218;42.874;25.320;2023-03-02T10:53:14;29.20;;;18.73;;
20114;SDS011;10218;42.874;25.320;2023-03-02T10:55:44;27.23;;;16.07;;
20114;SDS011;10218;42.874;25.320;2023-03-02T10:58:29;29.70;;;17.87;;
20114;SDS011;10218;42.874;25.320;2023-03-02T11:03:28;31.67;;;16.33;;
20114;SDS011;10218;42.874;25.320;2023-03-02T11:05:56;31.80;;;18.73;;
20114;SDS011;10218;42.874;25.320;2023-03-02T11:08:26;31.10;;;17.40;;
20114;SDS011;10218;42.874;25.320;2023-03-02T11:10:58;34.07;;;19.20;;
20114;SDS011;10218;42.874;25.320;2023-03-02T11:15:59;29.80;;;18.53;;
20114;SDS011;10218;42.874;25.320;2023-03-02T11:18:33;35.53;;;19.43;;
20114;SDS011;10218;42.874;25.320;2023-03-02T11:32:12;31.13;;;18.10;;
20114;SDS011;10218;42.874;25.320;2023-03-02T11:42:59;33.00;;;17.97;;
20114;SDS011;10218;42.874;25.320;2023-03-02T11:45:31;35.43;;;19.53;;
20114;SDS011;10218;42.874;25.320;2023-03-02T11:53:47;32.23;;;18.57;;
20114;SDS011;10218;42.874;25.320;2023-03-02T11:56:21;36.43;;;19.70;;
20114;SDS011;10218;42.874;25.320;2023-03-02T11:58:52;33.80;;;17.47;;
20114;SDS011;10218;42.874;25.320;2023-03-02T12:01:24;31.20;;;17.50;;
20114;SDS011;10218;42.874;25.320;2023-03-02T12:03:53;31.87;;;17.73;;
20114;SDS011;10218;42.874;25.320;2023-03-02T12:06:38;34.93;;;18.87;;
20114;SDS011;10218;42.874;25.320;2023-03-02T12:09:26;30.07;;;16.13;;
20114;SDS011;10218;42.874;25.320;2023-03-02T12:11:58;32.13;;;16.40;;
20114;SDS011;10218;42.874;25.320;2023-03-02T12:14:36;32.27;;;18.30;;
20114;SDS011;10218;42.874;25.320;2023-03-02T12:17:16;34.50;;;18.93;;
20114;SDS011;10218;42.874;25.320;2023-03-02T12:19:54;38.87;;;20.17;;
20114;SDS011;10218;42.874;25.320;2023-03-02T12:22:35;37.33;;;19.37;;
20114;SDS011;10218;42.874;25.320;2023-03-02T12:25:05;31.30;;;16.73;;
20114;SDS011;10218;42.874;25.320;2023-03-02T12:27:56;36.13;;;20.20;;
20114;SDS011;10218;42.874;25.320;2023-03-02T12:30:24;50.80;;;27.93;;
20114;SDS011;10218;42.874;25.320;2023-03-02T12:35:48;30.07;;;16.90;;
20114;SDS011;10218;42.874;25.320;2023-03-02T12:38:22;41.70;;;19.80;;
20114;SDS011;10218;42.874;25.320;2023-03-02T12:46:47;64.40;;;28.23;;
20114;SDS011;10218;42.874;25.320;2023-03-02T12:49:26;60.47;;;29.53;;
20114;SDS011;10218;42.874;25.320;2023-03-02T12:52:17;50.03;;;26.93;;
20114;SDS011;10218;42.874;25.320;2023-03-02T12:54:57;55.40;;;26.50;;
20114;SDS011;10218;42.874;25.320;2023-03-02T12:57:52;55.57;;;27.23;;
20114;SDS011;10218;42.874;25.320;2023-03-02T13:00:23;54.00;;;27.83;;
20114;SDS011;10218;42.874;25.320;2023-03-02T13:02:53;64.00;;;30.27;;
20114;SDS011;10218;42.874;25.320;2023-03-02T13:05:23;58.30;;;30.17;;
20114;SDS011;10218;42.874;25.320;2023-03-02T13:08:12;64.77;;;31.90;;
20114;SDS011;10218;42.874;25.320;2023-03-02T13:10:48;68.30;;;32.57;;
20114;SDS011;10218;42.874;25.320;2023-03-02T13:13:31;66.97;;;33.03;;
20114;SDS011;10218;42.874;25.320;2023-03-02T13:16:03;94.37;;;47.40;;
20114;SDS011;10218;42.874;25.320;2023-03-02T13:18:55;97.63;;;47.77;;
20114;SDS011;10218;42.874;25.320;2023-03-02T13:21:37;78.63;;;40.67;;
20114;SDS011;10218;42.874;25.320;2023-03-02T13:26:54;64.27;;;32.07;;
20114;SDS011;10218;42.874;25.320;2023-03-02T13:29:29;67.80;;;33.27;;
20114;SDS011;10218;42.874;25.320;2023-03-02T13:32:12;66.70;;;33.63;;
20114;SDS011;10218;42.874;25.320;2023-03-02T13:35:01;80.00;;;36.23;;
20114;SDS011;10218;42.874;25.320;2023-03-02T13:37:38;69.80;;;33.87;;
20114;SDS011;10218;42.874;25.320;2023-03-02T13:42:48;86.93;;;39.23;;
20114;SDS011;10218;42.874;25.320;2023-03-02T13:45:21;85.27;;;40.07;;
20114;SDS011;10218;42.874;25.320;2023-03-02T13:47:59;70.90;;;33.07;;
20114;SDS011;10218;42.874;25.320;2023-03-02T13:50:38;66.17;;;31.93;;
20114;SDS011;10218;42.874;25.320;2023-03-02T13:53:05;74.60;;;34.10;;
20114;SDS011;10218;42.874;25.320;2023-03-02T13:55:32;74.33;;;34.10;;
20114;SDS011;10218;42.874;25.320;2023-03-02T13:58:00;75.10;;;36.63;;
20114;SDS011;10218;42.874;25.320;2023-03-02T14:00:29;72.20;;;34.83;;
20114;SDS011;10218;42.874;25.320;2023-03-02T14:02:59;69.50;;;33.50;;
20114;SDS011;10218;42.874;25.320;2023-03-02T14:05:26;77.23;;;37.37;;
20114;SDS011;10218;42.874;25.320;2023-03-02T14:08:01;71.23;;;38.53;;
20114;SDS011;10218;42.874;25.320;2023-03-02T14:10:28;76.37;;;36.87;;
20114;SDS011;10218;42.874;25.320;2023-03-02T14:12:56;72.00;;;34.67;;
20114;SDS011;10218;42.874;25.320;2023-03-02T14:15:37;77.07;;;35.13;;
20114;SDS011;10218;42.874;25.320;2023-03-02T14:18:11;71.37;;;34.70;;
20114;SDS011;10218;42.874;25.320;2023-03-02T14:20:53;74.30;;;32.93;;
20114;SDS011;10218;42.874;25.320;2023-03-02T14:23:21;74.93;;;37.53;;
20114;SDS011;10218;42.874;25.320;2023-03-02T14:25:49;78.23;;;37.67;;
20114;SDS011;10218;42.874;25.320;2023-03-02T14:28:21;81.77;;;39.30;;
20114;SDS011;10218;42.874;25.320;2023-03-02T14:30:52;80.83;;;38.20;;
20114;SDS011;10218;42.874;25.320;2023-03-02T14:33:21;80.60;;;37.90;;
20114;SDS011;10218;42.874;25.320;2023-03-02T14:35:49;75.37;;;36.80;;
20114;SDS011;10218;42.874;25.320;2023-03-02T14:38:19;79.97;;;39.80;;
20114;SDS011;10218;42.874;25.320;2023-03-02T14:40:49;77.30;;;37.90;;
20114;SDS011;10218;42.874;25.320;2023-03-02T14:43:16;80.10;;;38.53;;
20114;SDS011;10218;42.874;25.320;2023-03-02T14:45:44;78.37;;;38.37;;
20114;SDS011;10218;42.874;25.320;2023-03-02T14:48:11;98.33;;;44.03;;
20114;SDS011;10218;42.874;25.320;2023-03-02T14:50:39;80.10;;;39.83;;
20114;SDS011;10218;42.874;25.320;2023-03-02T14:53:10;83.93;;;38.93;;
20114;SDS011;10218;42.874;25.320;2023-03-02T14:55:42;90.87;;;41.30;;
20114;SDS011;10218;42.874;25.320;2023-03-02T14:58:10;73.80;;;37.83;;
20114;SDS011;10218;42.874;25.320;2023-03-02T15:00:41;73.57;;;37.00;;
20114;SDS011;10218;42.874;25.320;2023-03-02T15:03:13;72.50;;;38.97;;
20114;SDS011;10218;42.874;25.320;2023-03-02T15:05:51;79.03;;;38.37;;
20114;SDS011;10218;42.874;25.320;2023-03-02T15:08:27;73.83;;;35.77;;
20114;SDS011;10218;42.874;25.320;2023-03-02T15:10:55;75.00;;;39.37;;
20114;SDS011;10218;42.874;25.320;2023-03-02T15:13:21;78.47;;;41.37;;
20114;SDS011;10218;42.874;25.320;2023-03-02T15:15:49;80.77;;;39.33;;
20114;SDS011;10218;42.874;25.320;2023-03-02T15:18:18;112.27;;;62.37;;
20114;SDS011;10218;42.874;25.320;2023-03-02T15:20:45;94.17;;;53.47;;
20114;SDS011;10218;42.874;25.320;2023-03-02T15:23:12;77.23;;;41.93;;
20114;SDS011;10218;42.874;25.320;2023-03-02T15:25:39;74.17;;;40.53;;
20114;SDS011;10218;42.874;25.320;2023-03-02T15:28:08;72.00;;;38.27;;
20114;SDS011;10218;42.874;25.320;2023-03-02T15:30:36;119.20;;;60.67;;
20114;SDS011;10218;42.874;25.320;2023-03-02T15:33:03;82.17;;;45.77;;
20114;SDS011;10218;42.874;25.320;2023-03-02T15:35:29;79.57;;;43.03;;
20114;SDS011;10218;42.874;25.320;2023-03-02T15:37:57;69.10;;;39.93;;
20114;SDS011;10218;42.874;25.320;2023-03-02T15:40:27;61.73;;;31.03;;
20114;SDS011;10218;42.874;25.320;2023-03-02T15:42:54;54.37;;;30.93;;
20114;SDS011;10218;42.874;25.320;2023-03-02T15:45:22;75.23;;;45.40;;
20114;SDS011;10218;42.874;25.320;2023-03-02T15:47:49;63.30;;;34.47;;